Aérodrome :
LOGIN :

S'inscrire | Disclaimer

   EN    FR    IT 

 










Légende :    VFR   VFR Marginal   IFR   IFR Intensif   IFR Très Intensif
Visi : 
Plafond : 
>= 8 km
>= 3000ft
5 à 8 km
1000 à 3000 ft
1500m à 5 km
500 à 1000 ft
800 à 1500m
200 à 500 ft
< 800m
< 200 ft
Symboles :   Orages  Brouillard  Fortes neiges  Fortes précipitations  Vent > 20 kt
SIGMETs :   Divers  Orages  Givrage  Turbulence  Onde Orograph.  Cendres Volcan.







- Altitude de l'aérodrome : 1766 ft


ETHL - Laupheim AB

DERNIER METAR :
  • 281720Z 23005KT 9999 BKN060 16/05 Q1023 BLU BLU+

METARs EXPIRÉS :
  • 281620Z 23007KT 9999 SCT060 18/04 Q1023 BLU+BLU+
  • 281520Z 22007KT 9999 SCT060 19/04 Q1022 BLU+BLU+

TAF TAF ETHL
Valide du 28 à 17h jusqu'au 29 à 02h UTC


281619Z 2817/2902 24005KT 9999 NSW SCT060
Pas de NOTAMs connus pour ce terrain.



MET'MAP, la Météo Aéronautique d'un coup d'oeil ! - Copyright ORBIFLY Décembre 2007 - Disclaimer

ORBIFLY MET'MAP TEAM :

Programmation & Développement : Alexandra Zaïnal
Conception & Développement : Baudouin d'Aumeries
Co-Programmation & Développement : Marc-Olivier Méhu
Soutien technique & logistique : Manuel Goepfert

Contact : metmap@orbifly.com




SOURCES & CREDITS :

   NOAA